LIRQ/FLR METAR and TAF weather

Enter ICAO airport designator
Station Type Date Time Source
LIRQ METAR 2019/08/25 06:20 UTC NOAA

LIRQ 250620Z VRB02KT CAVOK 21/18 Q1017


Station Type Date Time Source
LIRQ Decoded METAR 2019/08/25 06:20 UTC NOAA

Station name not available
Aug 25, 2019 - 02:20 AM EDT / 2019.08.25 0620 UTC
Wind: Variable at 2 MPH (2 KT):0
Visibility: greater than 7 mile(s):0
Temperature: 69 F (21 C)
Dew Point: 64 F (18 C)
Relative Humidity: 82%
Pressure (altimeter): 30.03 in. Hg (1017 hPa)
ob: LIRQ 250620Z VRB02KT CAVOK 21/18 Q1017
cycle: 6

Station Type Date Time Source
LIRQ TAF 2019/08/25 06:21 UTC NOAA

TAF LIRQ 250500Z 2506/2606 04006KT 9999 SCT030
TEMPO 2516/2520 SHRA

Example: see airport list